sensor_id;sensor_type;location;lat;lon;timestamp;P1;durP1;ratioP1;P2;durP2;ratioP2
20751;SDS011;10536;51.582;5.016;2022-08-14T00:04:10;6.97;;;4.13;;
20751;SDS011;10536;51.582;5.016;2022-08-14T00:09:11;4.28;;;3.88;;
20751;SDS011;10536;51.582;5.016;2022-08-14T00:14:11;5.57;;;3.60;;
20751;SDS011;10536;51.582;5.016;2022-08-14T00:19:11;7.47;;;3.50;;
20751;SDS011;10536;51.582;5.016;2022-08-14T00:24:12;3.57;;;3.37;;
20751;SDS011;10536;51.582;5.016;2022-08-14T00:29:12;10.87;;;4.27;;
20751;SDS011;10536;51.582;5.016;2022-08-14T00:34:13;3.80;;;3.42;;
20751;SDS011;10536;51.582;5.016;2022-08-14T00:39:14;4.37;;;4.10;;
20751;SDS011;10536;51.582;5.016;2022-08-14T00:44:18;4.40;;;3.85;;
20751;SDS011;10536;51.582;5.016;2022-08-14T00:49:18;7.32;;;4.32;;
20751;SDS011;10536;51.582;5.016;2022-08-14T00:54:19;4.27;;;3.87;;
20751;SDS011;10536;51.582;5.016;2022-08-14T00:59:22;4.63;;;4.22;;
20751;SDS011;10536;51.582;5.016;2022-08-14T01:04:24;4.97;;;4.47;;
20751;SDS011;10536;51.582;5.016;2022-08-14T01:09:25;5.13;;;4.63;;
20751;SDS011;10536;51.582;5.016;2022-08-14T01:14:28;7.90;;;4.82;;
20751;SDS011;10536;51.582;5.016;2022-08-14T01:19:29;6.75;;;4.82;;
20751;SDS011;10536;51.582;5.016;2022-08-14T01:24:48;6.55;;;4.40;;
20751;SDS011;10536;51.582;5.016;2022-08-14T01:29:52;6.03;;;5.43;;
20751;SDS011;10536;51.582;5.016;2022-08-14T01:34:54;6.85;;;5.18;;
20751;SDS011;10536;51.582;5.016;2022-08-14T01:39:55;5.43;;;5.00;;
20751;SDS011;10536;51.582;5.016;2022-08-14T01:44:55;6.68;;;5.43;;
20751;SDS011;10536;51.582;5.016;2022-08-14T01:49:56;7.93;;;5.47;;
20751;SDS011;10536;51.582;5.016;2022-08-14T01:54:57;7.50;;;5.82;;
20751;SDS011;10536;51.582;5.016;2022-08-14T01:59:57;6.37;;;5.50;;
20751;SDS011;10536;51.582;5.016;2022-08-14T02:04:57;9.03;;;6.10;;
20751;SDS011;10536;51.582;5.016;2022-08-14T02:09:59;6.70;;;5.75;;
20751;SDS011;10536;51.582;5.016;2022-08-14T02:15:00;6.38;;;5.78;;
20751;SDS011;10536;51.582;5.016;2022-08-14T02:20:02;8.18;;;7.47;;
20751;SDS011;10536;51.582;5.016;2022-08-14T02:25:04;6.63;;;6.22;;
20751;SDS011;10536;51.582;5.016;2022-08-14T02:30:05;7.60;;;6.85;;
20751;SDS011;10536;51.582;5.016;2022-08-14T02:35:08;7.35;;;6.53;;
20751;SDS011;10536;51.582;5.016;2022-08-14T02:40:17;7.07;;;6.47;;
20751;SDS011;10536;51.582;5.016;2022-08-14T02:45:19;8.23;;;6.68;;
20751;SDS011;10536;51.582;5.016;2022-08-14T02:50:21;11.63;;;6.40;;
20751;SDS011;10536;51.582;5.016;2022-08-14T02:55:21;6.13;;;5.75;;
20751;SDS011;10536;51.582;5.016;2022-08-14T03:00:22;10.20;;;6.25;;
20751;SDS011;10536;51.582;5.016;2022-08-14T03:05:22;8.18;;;6.10;;
20751;SDS011;10536;51.582;5.016;2022-08-14T03:10:23;6.17;;;5.77;;
20751;SDS011;10536;51.582;5.016;2022-08-14T03:15:23;17.58;;;5.70;;
20751;SDS011;10536;51.582;5.016;2022-08-14T03:20:27;7.83;;;4.77;;
20751;SDS011;10536;51.582;5.016;2022-08-14T03:25:29;7.47;;;5.43;;
20751;SDS011;10536;51.582;5.016;2022-08-14T03:30:32;5.37;;;4.83;;
20751;SDS011;10536;51.582;5.016;2022-08-14T03:35:35;5.97;;;4.85;;
20751;SDS011;10536;51.582;5.016;2022-08-14T03:40:36;9.57;;;5.00;;
20751;SDS011;10536;51.582;5.016;2022-08-14T03:45:39;5.20;;;4.50;;
20751;SDS011;10536;51.582;5.016;2022-08-14T03:50:40;5.95;;;5.30;;
20751;SDS011;10536;51.582;5.016;2022-08-14T03:55:43;4.60;;;4.27;;
20751;SDS011;10536;51.582;5.016;2022-08-14T04:00:43;10.65;;;5.10;;
20751;SDS011;10536;51.582;5.016;2022-08-14T04:05:45;5.72;;;5.32;;
20751;SDS011;10536;51.582;5.016;2022-08-14T04:10:46;5.97;;;5.43;;
20751;SDS011;10536;51.582;5.016;2022-08-14T04:15:46;5.95;;;5.45;;
20751;SDS011;10536;51.582;5.016;2022-08-14T04:20:47;10.27;;;6.00;;
20751;SDS011;10536;51.582;5.016;2022-08-14T04:25:50;8.32;;;6.72;;
20751;SDS011;10536;51.582;5.016;2022-08-14T04:30:53;7.18;;;6.40;;
20751;SDS011;10536;51.582;5.016;2022-08-14T04:35:54;10.63;;;6.88;;
20751;SDS011;10536;51.582;5.016;2022-08-14T04:40:55;8.27;;;7.55;;
20751;SDS011;10536;51.582;5.016;2022-08-14T04:46:16;10.57;;;8.32;;
20751;SDS011;10536;51.582;5.016;2022-08-14T04:51:19;7.80;;;7.20;;
20751;SDS011;10536;51.582;5.016;2022-08-14T04:56:22;9.80;;;7.75;;
20751;SDS011;10536;51.582;5.016;2022-08-14T05:01:25;9.77;;;7.57;;
20751;SDS011;10536;51.582;5.016;2022-08-14T05:06:25;9.98;;;8.20;;
20751;SDS011;10536;51.582;5.016;2022-08-14T05:11:26;9.57;;;8.57;;
20751;SDS011;10536;51.582;5.016;2022-08-14T05:16:27;10.20;;;9.38;;
20751;SDS011;10536;51.582;5.016;2022-08-14T05:21:30;15.18;;;9.30;;
20751;SDS011;10536;51.582;5.016;2022-08-14T05:26:32;10.63;;;9.57;;
20751;SDS011;10536;51.582;5.016;2022-08-14T05:31:33;10.85;;;9.95;;
20751;SDS011;10536;51.582;5.016;2022-08-14T05:36:35;11.02;;;9.95;;
20751;SDS011;10536;51.582;5.016;2022-08-14T05:41:35;14.32;;;10.25;;
20751;SDS011;10536;51.582;5.016;2022-08-14T05:46:36;10.98;;;9.85;;
20751;SDS011;10536;51.582;5.016;2022-08-14T05:51:36;11.02;;;10.10;;
20751;SDS011;10536;51.582;5.016;2022-08-14T05:56:37;14.77;;;10.95;;
20751;SDS011;10536;51.582;5.016;2022-08-14T06:01:38;10.87;;;9.63;;
20751;SDS011;10536;51.582;5.016;2022-08-14T06:06:38;11.75;;;10.55;;
20751;SDS011;10536;51.582;5.016;2022-08-14T06:11:39;10.47;;;9.37;;
20751;SDS011;10536;51.582;5.016;2022-08-14T06:16:40;10.35;;;9.48;;
20751;SDS011;10536;51.582;5.016;2022-08-14T06:26:44;13.70;;;8.63;;
20751;SDS011;10536;51.582;5.016;2022-08-14T06:31:45;13.35;;;8.30;;
20751;SDS011;10536;51.582;5.016;2022-08-14T06:36:46;11.02;;;7.57;;
20751;SDS011;10536;51.582;5.016;2022-08-14T06:41:47;10.55;;;7.10;;
20751;SDS011;10536;51.582;5.016;2022-08-14T06:46:47;9.37;;;6.80;;
20751;SDS011;10536;51.582;5.016;2022-08-14T06:51:48;8.30;;;5.90;;
20751;SDS011;10536;51.582;5.016;2022-08-14T06:56:48;7.25;;;6.10;;
20751;SDS011;10536;51.582;5.016;2022-08-14T07:01:49;11.88;;;6.57;;
20751;SDS011;10536;51.582;5.016;2022-08-14T07:07:08;8.88;;;6.25;;
20751;SDS011;10536;51.582;5.016;2022-08-14T07:12:08;9.55;;;5.88;;
20751;SDS011;10536;51.582;5.016;2022-08-14T07:17:09;7.25;;;6.47;;
20751;SDS011;10536;51.582;5.016;2022-08-14T07:22:09;9.30;;;6.35;;
20751;SDS011;10536;51.582;5.016;2022-08-14T07:27:10;7.47;;;6.53;;
20751;SDS011;10536;51.582;5.016;2022-08-14T07:32:11;7.80;;;5.70;;
20751;SDS011;10536;51.582;5.016;2022-08-14T07:37:11;9.03;;;7.03;;
20751;SDS011;10536;51.582;5.016;2022-08-14T07:42:11;6.87;;;6.37;;
20751;SDS011;10536;51.582;5.016;2022-08-14T07:47:12;9.70;;;6.23;;
20751;SDS011;10536;51.582;5.016;2022-08-14T07:52:14;6.70;;;6.03;;
20751;SDS011;10536;51.582;5.016;2022-08-14T07:57:15;6.43;;;5.93;;
20751;SDS011;10536;51.582;5.016;2022-08-14T08:02:17;6.78;;;6.07;;
20751;SDS011;10536;51.582;5.016;2022-08-14T08:07:18;6.25;;;5.38;;
20751;SDS011;10536;51.582;5.016;2022-08-14T08:12:20;9.55;;;5.72;;
20751;SDS011;10536;51.582;5.016;2022-08-14T08:17:21;6.43;;;5.88;;
20751;SDS011;10536;51.582;5.016;2022-08-14T08:22:22;6.20;;;5.70;;
20751;SDS011;10536;51.582;5.016;2022-08-14T08:27:23;8.17;;;6.20;;
20751;SDS011;10536;51.582;5.016;2022-08-14T08:32:23;7.85;;;6.32;;
20751;SDS011;10536;51.582;5.016;2022-08-14T08:37:27;6.80;;;6.20;;
20751;SDS011;10536;51.582;5.016;2022-08-14T08:42:28;7.05;;;6.30;;
20751;SDS011;10536;51.582;5.016;2022-08-14T08:47:38;6.40;;;5.80;;
20751;SDS011;10536;51.582;5.016;2022-08-14T08:52:47;7.10;;;5.40;;
20751;SDS011;10536;51.582;5.016;2022-08-14T08:57:54;9.30;;;5.78;;
20751;SDS011;10536;51.582;5.016;2022-08-14T09:02:57;11.57;;;4.95;;
20751;SDS011;10536;51.582;5.016;2022-08-14T09:08:08;6.93;;;5.60;;
20751;SDS011;10536;51.582;5.016;2022-08-14T09:13:15;5.85;;;5.43;;
20751;SDS011;10536;51.582;5.016;2022-08-14T09:18:16;5.82;;;5.43;;
20751;SDS011;10536;51.582;5.016;2022-08-14T09:23:18;5.80;;;4.85;;
20751;SDS011;10536;51.582;5.016;2022-08-14T09:28:19;4.65;;;4.43;;
20751;SDS011;10536;51.582;5.016;2022-08-14T09:39:00;7.53;;;4.82;;
20751;SDS011;10536;51.582;5.016;2022-08-14T09:44:08;8.43;;;4.60;;
20751;SDS011;10536;51.582;5.016;2022-08-14T09:49:30;3.88;;;3.58;;
20751;SDS011;10536;51.582;5.016;2022-08-14T09:54:42;8.05;;;3.83;;
20751;SDS011;10536;51.582;5.016;2022-08-14T09:59:45;4.32;;;3.88;;
20751;SDS011;10536;51.582;5.016;2022-08-14T10:05:04;4.80;;;4.40;;
20751;SDS011;10536;51.582;5.016;2022-08-14T10:10:09;4.33;;;3.97;;
20751;SDS011;10536;51.582;5.016;2022-08-14T10:15:17;4.93;;;4.47;;
20751;SDS011;10536;51.582;5.016;2022-08-14T10:20:30;4.50;;;4.20;;
20751;SDS011;10536;51.582;5.016;2022-08-14T10:25:38;4.85;;;4.03;;
20751;SDS011;10536;51.582;5.016;2022-08-14T10:30:40;4.53;;;3.60;;
20751;SDS011;10536;51.582;5.016;2022-08-14T10:35:42;4.45;;;3.75;;
20751;SDS011;10536;51.582;5.016;2022-08-14T10:40:43;4.10;;;3.80;;
20751;SDS011;10536;51.582;5.016;2022-08-14T10:50:57;3.95;;;3.47;;
20751;SDS011;10536;51.582;5.016;2022-08-14T10:55:59;7.55;;;3.63;;
20751;SDS011;10536;51.582;5.016;2022-08-14T11:01:03;5.28;;;3.55;;
20751;SDS011;10536;51.582;5.016;2022-08-14T11:06:10;3.45;;;2.70;;
20751;SDS011;10536;51.582;5.016;2022-08-14T11:11:17;4.32;;;2.63;;
20751;SDS011;10536;51.582;5.016;2022-08-14T11:16:18;5.82;;;3.40;;
20751;SDS011;10536;51.582;5.016;2022-08-14T11:21:20;2.92;;;2.60;;
20751;SDS011;10536;51.582;5.016;2022-08-14T11:26:21;4.13;;;2.80;;
20751;SDS011;10536;51.582;5.016;2022-08-14T11:31:24;2.63;;;2.45;;
20751;SDS011;10536;51.582;5.016;2022-08-14T11:36:26;4.70;;;2.30;;
20751;SDS011;10536;51.582;5.016;2022-08-14T11:41:27;3.73;;;2.70;;
20751;SDS011;10536;51.582;5.016;2022-08-14T11:46:28;3.17;;;2.88;;
20751;SDS011;10536;51.582;5.016;2022-08-14T11:51:29;4.00;;;2.50;;
20751;SDS011;10536;51.582;5.016;2022-08-14T11:56:33;4.90;;;2.80;;
20751;SDS011;10536;51.582;5.016;2022-08-14T12:01:35;3.35;;;3.15;;
20751;SDS011;10536;51.582;5.016;2022-08-14T12:06:52;3.70;;;3.35;;
20751;SDS011;10536;51.582;5.016;2022-08-14T12:11:55;3.42;;;3.20;;
20751;SDS011;10536;51.582;5.016;2022-08-14T12:16:59;4.00;;;3.45;;
20751;SDS011;10536;51.582;5.016;2022-08-14T12:22:06;3.53;;;3.20;;
20751;SDS011;10536;51.582;5.016;2022-08-14T12:27:07;4.70;;;2.90;;
20751;SDS011;10536;51.582;5.016;2022-08-14T12:32:07;3.37;;;3.07;;
20751;SDS011;10536;51.582;5.016;2022-08-14T12:37:07;3.27;;;3.07;;
20751;SDS011;10536;51.582;5.016;2022-08-14T12:42:08;4.68;;;4.10;;
20751;SDS011;10536;51.582;5.016;2022-08-14T12:47:14;6.85;;;3.40;;
20751;SDS011;10536;51.582;5.016;2022-08-14T12:52:32;3.50;;;2.70;;
20751;SDS011;10536;51.582;5.016;2022-08-14T12:57:36;2.40;;;2.30;;
20751;SDS011;10536;51.582;5.016;2022-08-14T13:02:39;2.97;;;2.42;;
20751;SDS011;10536;51.582;5.016;2022-08-14T13:07:41;4.35;;;3.00;;
20751;SDS011;10536;51.582;5.016;2022-08-14T13:12:42;2.95;;;2.78;;
20751;SDS011;10536;51.582;5.016;2022-08-14T13:17:44;3.35;;;3.15;;
20751;SDS011;10536;51.582;5.016;2022-08-14T13:22:51;3.20;;;3.00;;
20751;SDS011;10536;51.582;5.016;2022-08-14T13:27:55;5.65;;;3.10;;
20751;SDS011;10536;51.582;5.016;2022-08-14T13:32:57;3.85;;;3.03;;
20751;SDS011;10536;51.582;5.016;2022-08-14T13:38:01;5.18;;;3.38;;
20751;SDS011;10536;51.582;5.016;2022-08-14T13:43:02;3.53;;;3.25;;
20751;SDS011;10536;51.582;5.016;2022-08-14T13:48:04;3.60;;;3.17;;
20751;SDS011;10536;51.582;5.016;2022-08-14T13:53:05;5.50;;;3.80;;
20751;SDS011;10536;51.582;5.016;2022-08-14T13:58:08;3.05;;;2.95;;
20751;SDS011;10536;51.582;5.016;2022-08-14T14:03:11;3.50;;;3.30;;
20751;SDS011;10536;51.582;5.016;2022-08-14T14:08:13;4.03;;;2.72;;
20751;SDS011;10536;51.582;5.016;2022-08-14T14:13:14;3.50;;;3.20;;
20751;SDS011;10536;51.582;5.016;2022-08-14T14:18:17;3.30;;;3.10;;
20751;SDS011;10536;51.582;5.016;2022-08-14T14:23:19;3.67;;;3.38;;
20751;SDS011;10536;51.582;5.016;2022-08-14T14:28:20;5.15;;;3.50;;
20751;SDS011;10536;51.582;5.016;2022-08-14T14:33:21;9.00;;;3.50;;
20751;SDS011;10536;51.582;5.016;2022-08-14T14:38:24;3.58;;;3.35;;
20751;SDS011;10536;51.582;5.016;2022-08-14T14:43:26;3.23;;;2.87;;
20751;SDS011;10536;51.582;5.016;2022-08-14T14:48:27;3.53;;;3.33;;
20751;SDS011;10536;51.582;5.016;2022-08-14T14:53:31;3.97;;;3.33;;
20751;SDS011;10536;51.582;5.016;2022-08-14T14:58:33;3.75;;;3.47;;
20751;SDS011;10536;51.582;5.016;2022-08-14T15:03:37;2.97;;;2.80;;
20751;SDS011;10536;51.582;5.016;2022-08-14T15:08:38;3.20;;;2.95;;
20751;SDS011;10536;51.582;5.016;2022-08-14T15:13:39;3.28;;;3.08;;
20751;SDS011;10536;51.582;5.016;2022-08-14T15:18:40;5.77;;;3.37;;
20751;SDS011;10536;51.582;5.016;2022-08-14T15:23:40;3.42;;;3.20;;
20751;SDS011;10536;51.582;5.016;2022-08-14T15:28:41;3.30;;;2.93;;
20751;SDS011;10536;51.582;5.016;2022-08-14T15:33:42;5.50;;;3.63;;
20751;SDS011;10536;51.582;5.016;2022-08-14T15:39:02;3.55;;;3.22;;
20751;SDS011;10536;51.582;5.016;2022-08-14T15:44:03;3.63;;;2.70;;
20751;SDS011;10536;51.582;5.016;2022-08-14T15:49:04;3.13;;;2.70;;
20751;SDS011;10536;51.582;5.016;2022-08-14T15:54:06;3.22;;;3.03;;
20751;SDS011;10536;51.582;5.016;2022-08-14T15:59:10;3.28;;;2.95;;
20751;SDS011;10536;51.582;5.016;2022-08-14T16:04:10;7.00;;;3.00;;
20751;SDS011;10536;51.582;5.016;2022-08-14T16:09:11;3.47;;;3.25;;
20751;SDS011;10536;51.582;5.016;2022-08-14T16:14:12;3.28;;;3.10;;
20751;SDS011;10536;51.582;5.016;2022-08-14T16:19:17;5.80;;;5.38;;
20751;SDS011;10536;51.582;5.016;2022-08-14T16:24:20;3.75;;;2.85;;
20751;SDS011;10536;51.582;5.016;2022-08-14T16:29:21;6.72;;;3.90;;
20751;SDS011;10536;51.582;5.016;2022-08-14T16:34:21;4.68;;;3.00;;
20751;SDS011;10536;51.582;5.016;2022-08-14T16:39:22;3.50;;;3.30;;
20751;SDS011;10536;51.582;5.016;2022-08-14T16:44:24;5.07;;;3.17;;
20751;SDS011;10536;51.582;5.016;2022-08-14T16:49:37;4.47;;;2.83;;
20751;SDS011;10536;51.582;5.016;2022-08-14T16:54:42;8.40;;;4.80;;
20751;SDS011;10536;51.582;5.016;2022-08-14T16:59:47;8.25;;;7.15;;
20751;SDS011;10536;51.582;5.016;2022-08-14T17:04:49;11.85;;;9.93;;
20751;SDS011;10536;51.582;5.016;2022-08-14T17:09:51;5.37;;;3.90;;
20751;SDS011;10536;51.582;5.016;2022-08-14T17:14:56;3.70;;;3.10;;
20751;SDS011;10536;51.582;5.016;2022-08-14T17:20:06;5.00;;;3.90;;
20751;SDS011;10536;51.582;5.016;2022-08-14T17:30:22;4.20;;;3.80;;
20751;SDS011;10536;51.582;5.016;2022-08-14T17:35:26;5.65;;;3.97;;
20751;SDS011;10536;51.582;5.016;2022-08-14T17:40:28;4.30;;;3.90;;
20751;SDS011;10536;51.582;5.016;2022-08-14T17:50:41;4.93;;;4.47;;
20751;SDS011;10536;51.582;5.016;2022-08-14T17:55:45;6.57;;;3.90;;
20751;SDS011;10536;51.582;5.016;2022-08-14T18:00:47;7.50;;;4.28;;
20751;SDS011;10536;51.582;5.016;2022-08-14T18:05:50;4.90;;;3.97;;
20751;SDS011;10536;51.582;5.016;2022-08-14T18:10:51;4.40;;;4.10;;
20751;SDS011;10536;51.582;5.016;2022-08-14T18:15:52;4.97;;;4.32;;
20751;SDS011;10536;51.582;5.016;2022-08-14T18:20:54;4.23;;;3.87;;
20751;SDS011;10536;51.582;5.016;2022-08-14T18:25:57;4.25;;;3.75;;
20751;SDS011;10536;51.582;5.016;2022-08-14T18:41:46;5.40;;;4.10;;
20751;SDS011;10536;51.582;5.016;2022-08-14T18:52:12;5.30;;;4.35;;
20751;SDS011;10536;51.582;5.016;2022-08-14T18:57:13;4.55;;;4.15;;
20751;SDS011;10536;51.582;5.016;2022-08-14T19:07:26;5.40;;;4.55;;
20751;SDS011;10536;51.582;5.016;2022-08-14T19:17:52;5.30;;;4.78;;
20751;SDS011;10536;51.582;5.016;2022-08-14T19:22:53;6.00;;;4.90;;
20751;SDS011;10536;51.582;5.016;2022-08-14T19:28:13;9.23;;;6.45;;
20751;SDS011;10536;51.582;5.016;2022-08-14T19:38:56;5.72;;;5.22;;
20751;SDS011;10536;51.582;5.016;2022-08-14T19:49:11;5.53;;;5.13;;
20751;SDS011;10536;51.582;5.016;2022-08-14T19:54:13;6.18;;;5.45;;
20751;SDS011;10536;51.582;5.016;2022-08-14T19:59:17;6.03;;;5.55;;
20751;SDS011;10536;51.582;5.016;2022-08-14T20:09:22;5.93;;;5.53;;
20751;SDS011;10536;51.582;5.016;2022-08-14T20:14:23;6.80;;;6.03;;
20751;SDS011;10536;51.582;5.016;2022-08-14T20:19:27;8.23;;;5.70;;
20751;SDS011;10536;51.582;5.016;2022-08-14T20:29:34;5.53;;;5.18;;
20751;SDS011;10536;51.582;5.016;2022-08-14T20:34:35;6.15;;;5.55;;
20751;SDS011;10536;51.582;5.016;2022-08-14T20:39:41;6.30;;;5.78;;
20751;SDS011;10536;51.582;5.016;2022-08-14T20:44:44;7.03;;;6.45;;
20751;SDS011;10536;51.582;5.016;2022-08-14T20:50:21;8.55;;;6.55;;
20751;SDS011;10536;51.582;5.016;2022-08-14T21:00:41;7.40;;;6.80;;
20751;SDS011;10536;51.582;5.016;2022-08-14T21:05:43;7.80;;;6.72;;
20751;SDS011;10536;51.582;5.016;2022-08-14T21:10:43;7.18;;;6.68;;
20751;SDS011;10536;51.582;5.016;2022-08-14T21:15:46;7.22;;;6.57;;
20751;SDS011;10536;51.582;5.016;2022-08-14T21:20:47;7.30;;;6.60;;
20751;SDS011;10536;51.582;5.016;2022-08-14T21:25:48;8.50;;;6.80;;
20751;SDS011;10536;51.582;5.016;2022-08-14T21:30:48;9.00;;;7.10;;
20751;SDS011;10536;51.582;5.016;2022-08-14T21:35:54;7.05;;;6.47;;
20751;SDS011;10536;51.582;5.016;2022-08-14T21:40:56;8.25;;;6.93;;
20751;SDS011;10536;51.582;5.016;2022-08-14T21:45:57;6.73;;;6.23;;
20751;SDS011;10536;51.582;5.016;2022-08-14T21:50:58;7.75;;;6.97;;
20751;SDS011;10536;51.582;5.016;2022-08-14T21:56:01;8.18;;;7.18;;
20751;SDS011;10536;51.582;5.016;2022-08-14T22:01:04;7.70;;;7.20;;
20751;SDS011;10536;51.582;5.016;2022-08-14T22:06:05;12.55;;;6.45;;
20751;SDS011;10536;51.582;5.016;2022-08-14T22:11:05;7.90;;;7.13;;
20751;SDS011;10536;51.582;5.016;2022-08-14T22:16:06;7.47;;;6.78;;
20751;SDS011;10536;51.582;5.016;2022-08-14T22:21:07;7.45;;;6.88;;
20751;SDS011;10536;51.582;5.016;2022-08-14T22:26:08;8.13;;;7.43;;
20751;SDS011;10536;51.582;5.016;2022-08-14T22:31:11;8.00;;;7.15;;
20751;SDS011;10536;51.582;5.016;2022-08-14T22:36:16;7.72;;;7.07;;
20751;SDS011;10536;51.582;5.016;2022-08-14T22:41:35;7.32;;;6.80;;
20751;SDS011;10536;51.582;5.016;2022-08-14T22:46:37;9.05;;;7.25;;
20751;SDS011;10536;51.582;5.016;2022-08-14T22:51:38;7.38;;;6.88;;
20751;SDS011;10536;51.582;5.016;2022-08-14T22:56:38;9.70;;;8.15;;
20751;SDS011;10536;51.582;5.016;2022-08-14T23:06:43;9.30;;;7.78;;
20751;SDS011;10536;51.582;5.016;2022-08-14T23:11:45;7.65;;;6.82;;
20751;SDS011;10536;51.582;5.016;2022-08-14T23:16:48;8.50;;;7.90;;
20751;SDS011;10536;51.582;5.016;2022-08-14T23:21:51;9.13;;;7.72;;
20751;SDS011;10536;51.582;5.016;2022-08-14T23:26:53;8.67;;;7.83;;
20751;SDS011;10536;51.582;5.016;2022-08-14T23:31:54;8.48;;;7.85;;
20751;SDS011;10536;51.582;5.016;2022-08-14T23:36:56;8.02;;;7.38;;
20751;SDS011;10536;51.582;5.016;2022-08-14T23:42:03;7.35;;;6.75;;
20751;SDS011;10536;51.582;5.016;2022-08-14T23:47:08;7.97;;;7.18;;
20751;SDS011;10536;51.582;5.016;2022-08-14T23:52:09;8.23;;;7.55;;
20751;SDS011;10536;51.582;5.016;2022-08-14T23:57:10;7.50;;;6.47;;
